Previous Day
Next Day
Current Day
SHEF ID: FVSO2 FAIRVIEW
STATION TYPE: Mesonet
PRECIP AIR-TEMP WIND-DIRWIND-SPEED REL-HUMID SOLAR-RAD
in F deg mph % W/m2
Raw-Meson Raw-Meson Raw-Meson Raw-Meson Raw-Meson Raw-Meson
(US/Central)
05/19 00:00 0.00 61.20 195.75 3.47 98.00 0.00
05/19 01:00 0.00 61.97 154.00 2.58 98.25 0.00
05/19 02:00 0.00 61.84 96.00 2.18 99.00 0.00
05/19 03:00 0.00 60.35 127.75 1.79 99.00 0.00
05/19 04:00 0.00 59.63 155.25 2.63 99.00 0.00
05/19 05:00 0.00 59.05 70.25 2.07 99.00 0.00
05/19 06:00 0.00 59.05 119.25 5.25 99.50 0.00
05/19 07:00 0.00 60.94 117.50 5.98 100.00 2.00
05/19 08:00 0.01 61.97 134.75 7.83 100.00 13.50
05/19 09:00 0.03 62.78 118.25 7.99 99.25 36.75
05/19 10:00 0.05 63.36 147.50 8.00 99.00 62.25
05/19 11:00 0.01 64.18 121.50 7.44 98.50 178.50
05/19 12:00 0.00 65.53 140.00 6.43 95.25 214.75
05/19 13:00 0.00 69.17 141.75 7.27 88.50 654.00
05/19 14:00 0.00 72.00 126.00 7.88 80.25 538.25
05/19 15:00 0.00 73.36 88.00 6.49 78.00 540.50
05/19 16:00 0.00 76.91 104.50 8.45 66.25 672.50
05/19 17:00 0.00 76.46 113.00 11.18 67.75 530.00
05/19 18:00 0.00 ---- ---- ---- ---- ----
05/19 19:00 0.00 74.03 121.75 11.07 72.25 187.75
05/19 20:00 ---- 71.38 109.50 9.67 79.25 57.00
05/19 21:00 ---- ---- ---- ---- ---- ----
05/19 22:00 ---- ---- ---- ---- ---- ----
05/19 23:00 ---- ---- ---- ---- ---- ----